sensor_id;sensor_type;location;lat;lon;timestamp;temperature;humidity
35796;DHT22;21916;52.428;13.302;2023-04-03T00:00:30;1.10;99.90
35796;DHT22;21916;52.428;13.302;2023-04-03T00:02:57;1.20;99.90
35796;DHT22;21916;52.428;13.302;2023-04-03T00:05:23;1.20;99.90
35796;DHT22;21916;52.428;13.302;2023-04-03T00:07:49;1.10;99.90
35796;DHT22;21916;52.428;13.302;2023-04-03T00:10:15;1.00;99.90
35796;DHT22;21916;52.428;13.302;2023-04-03T00:12:41;1.10;99.90
35796;DHT22;21916;52.428;13.302;2023-04-03T00:15:08;1.00;99.90
35796;DHT22;21916;52.428;13.302;2023-04-03T00:17:34;1.00;99.90
35796;DHT22;21916;52.428;13.302;2023-04-03T00:20:01;1.00;99.90
35796;DHT22;21916;52.428;13.302;2023-04-03T00:22:26;1.00;99.90
35796;DHT22;21916;52.428;13.302;2023-04-03T00:24:54;1.10;99.90
35796;DHT22;21916;52.428;13.302;2023-04-03T00:27:20;1.00;99.90
35796;DHT22;21916;52.428;13.302;2023-04-03T00:29:47;1.00;99.90
35796;DHT22;21916;52.428;13.302;2023-04-03T00:32:13;1.00;99.90
35796;DHT22;21916;52.428;13.302;2023-04-03T00:34:39;1.00;99.90
35796;DHT22;21916;52.428;13.302;2023-04-03T00:37:05;1.00;99.90
35796;DHT22;21916;52.428;13.302;2023-04-03T00:39:31;0.90;99.90
35796;DHT22;21916;52.428;13.302;2023-04-03T00:41:57;0.90;99.90
35796;DHT22;21916;52.428;13.302;2023-04-03T00:46:59;1.00;99.90
35796;DHT22;21916;52.428;13.302;2023-04-03T00:49:26;1.00;99.90
35796;DHT22;21916;52.428;13.302;2023-04-03T00:51:53;0.90;99.90
35796;DHT22;21916;52.428;13.302;2023-04-03T00:54:20;0.90;99.90
35796;DHT22;21916;52.428;13.302;2023-04-03T00:56:46;0.90;99.90
35796;DHT22;21916;52.428;13.302;2023-04-03T00:59:16;0.80;99.90
35796;DHT22;21916;52.428;13.302;2023-04-03T01:01:44;1.00;99.90
35796;DHT22;21916;52.428;13.302;2023-04-03T01:04:31;0.90;99.90
35796;DHT22;21916;52.428;13.302;2023-04-03T01:07:04;0.90;99.90
35796;DHT22;21916;52.428;13.302;2023-04-03T01:09:32;0.80;99.90
35796;DHT22;21916;52.428;13.302;2023-04-03T01:12:20;0.80;99.90
35796;DHT22;21916;52.428;13.302;2023-04-03T01:14:51;0.80;99.90
35796;DHT22;21916;52.428;13.302;2023-04-03T01:17:44;0.90;99.90
35796;DHT22;21916;52.428;13.302;2023-04-03T01:25:27;0.70;99.90
35796;DHT22;21916;52.428;13.302;2023-04-03T01:27:54;0.70;99.90
35796;DHT22;21916;52.428;13.302;2023-04-03T01:30:25;0.70;99.90
35796;DHT22;21916;52.428;13.302;2023-04-03T01:32:53;0.70;99.90
35796;DHT22;21916;52.428;13.302;2023-04-03T01:35:19;0.60;99.90
35796;DHT22;21916;52.428;13.302;2023-04-03T01:37:45;0.60;99.90
35796;DHT22;21916;52.428;13.302;2023-04-03T01:40:11;0.70;99.90
35796;DHT22;21916;52.428;13.302;2023-04-03T01:42:38;0.60;99.90
35796;DHT22;21916;52.428;13.302;2023-04-03T01:45:05;0.60;99.90
35796;DHT22;21916;52.428;13.302;2023-04-03T01:47:31;0.60;99.90
35796;DHT22;21916;52.428;13.302;2023-04-03T01:49:57;0.50;99.90
35796;DHT22;21916;52.428;13.302;2023-04-03T01:52:23;0.50;99.90
35796;DHT22;21916;52.428;13.302;2023-04-03T01:54:50;0.50;99.90
35796;DHT22;21916;52.428;13.302;2023-04-03T01:57:16;0.50;99.90
35796;DHT22;21916;52.428;13.302;2023-04-03T01:59:43;0.50;99.90
35796;DHT22;21916;52.428;13.302;2023-04-03T02:02:09;0.40;99.90
35796;DHT22;21916;52.428;13.302;2023-04-03T02:04:35;0.50;99.90
35796;DHT22;21916;52.428;13.302;2023-04-03T02:07:01;0.40;99.90
35796;DHT22;21916;52.428;13.302;2023-04-03T02:09:27;0.50;99.90
35796;DHT22;21916;52.428;13.302;2023-04-03T02:11:53;0.40;99.90
35796;DHT22;21916;52.428;13.302;2023-04-03T02:14:19;0.40;99.90
35796;DHT22;21916;52.428;13.302;2023-04-03T02:16:45;0.40;99.90
35796;DHT22;21916;52.428;13.302;2023-04-03T02:19:10;0.50;99.90
35796;DHT22;21916;52.428;13.302;2023-04-03T02:21:36;0.40;99.90
35796;DHT22;21916;52.428;13.302;2023-04-03T02:24:02;0.40;99.90
35796;DHT22;21916;52.428;13.302;2023-04-03T02:26:28;0.30;99.90
35796;DHT22;21916;52.428;13.302;2023-04-03T02:28:54;0.40;99.90
35796;DHT22;21916;52.428;13.302;2023-04-03T02:31:20;0.40;99.90
35796;DHT22;21916;52.428;13.302;2023-04-03T02:33:47;0.50;99.90
35796;DHT22;21916;52.428;13.302;2023-04-03T02:36:14;0.50;99.90
35796;DHT22;21916;52.428;13.302;2023-04-03T02:38:43;0.30;99.90
35796;DHT22;21916;52.428;13.302;2023-04-03T02:41:11;0.40;99.90
35796;DHT22;21916;52.428;13.302;2023-04-03T02:43:38;0.30;99.90
35796;DHT22;21916;52.428;13.302;2023-04-03T02:46:05;0.30;99.90
35796;DHT22;21916;52.428;13.302;2023-04-03T02:48:32;0.40;99.90
35796;DHT22;21916;52.428;13.302;2023-04-03T02:50:58;0.20;99.90
35796;DHT22;21916;52.428;13.302;2023-04-03T02:53:24;0.20;99.90
35796;DHT22;21916;52.428;13.302;2023-04-03T02:55:50;0.30;99.90
35796;DHT22;21916;52.428;13.302;2023-04-03T02:58:16;0.30;99.90
35796;DHT22;21916;52.428;13.302;2023-04-03T03:00:42;0.30;99.90
35796;DHT22;21916;52.428;13.302;2023-04-03T03:03:08;0.40;99.90
35796;DHT22;21916;52.428;13.302;2023-04-03T03:05:34;0.30;99.90
35796;DHT22;21916;52.428;13.302;2023-04-03T03:08:00;0.40;99.90
35796;DHT22;21916;52.428;13.302;2023-04-03T03:10:25;0.40;99.90
35796;DHT22;21916;52.428;13.302;2023-04-03T03:12:51;0.40;99.90
35796;DHT22;21916;52.428;13.302;2023-04-03T03:15:17;0.40;99.90
35796;DHT22;21916;52.428;13.302;2023-04-03T03:17:45;0.40;99.90
35796;DHT22;21916;52.428;13.302;2023-04-03T03:20:11;0.40;99.90
35796;DHT22;21916;52.428;13.302;2023-04-03T03:22:39;0.60;99.90
35796;DHT22;21916;52.428;13.302;2023-04-03T03:25:05;0.50;99.90
35796;DHT22;21916;52.428;13.302;2023-04-03T03:27:31;0.50;99.90
35796;DHT22;21916;52.428;13.302;2023-04-03T03:29:57;0.40;99.90
35796;DHT22;21916;52.428;13.302;2023-04-03T03:32:24;0.40;99.90
35796;DHT22;21916;52.428;13.302;2023-04-03T03:34:50;0.40;99.90
35796;DHT22;21916;52.428;13.302;2023-04-03T03:37:16;0.40;99.90
35796;DHT22;21916;52.428;13.302;2023-04-03T03:39:41;0.50;99.90
35796;DHT22;21916;52.428;13.302;2023-04-03T03:42:09;0.50;99.90
35796;DHT22;21916;52.428;13.302;2023-04-03T03:44:35;0.50;99.90
35796;DHT22;21916;52.428;13.302;2023-04-03T03:47:01;0.40;99.90
35796;DHT22;21916;52.428;13.302;2023-04-03T03:49:28;0.40;99.90
35796;DHT22;21916;52.428;13.302;2023-04-03T03:51:54;0.30;99.90
35796;DHT22;21916;52.428;13.302;2023-04-03T03:54:21;0.30;99.90
35796;DHT22;21916;52.428;13.302;2023-04-03T03:56:48;0.40;99.90
35796;DHT22;21916;52.428;13.302;2023-04-03T03:59:13;0.40;99.90
35796;DHT22;21916;52.428;13.302;2023-04-03T04:01:40;0.30;99.90
35796;DHT22;21916;52.428;13.302;2023-04-03T04:04:07;0.30;99.90
35796;DHT22;21916;52.428;13.302;2023-04-03T04:06:33;0.30;99.90
35796;DHT22;21916;52.428;13.302;2023-04-03T04:09:03;0.30;99.90
35796;DHT22;21916;52.428;13.302;2023-04-03T04:11:30;0.30;99.90
35796;DHT22;21916;52.428;13.302;2023-04-03T04:13:56;0.30;99.90
35796;DHT22;21916;52.428;13.302;2023-04-03T04:16:25;0.10;99.90
35796;DHT22;21916;52.428;13.302;2023-04-03T04:18:53;0.20;99.90
35796;DHT22;21916;52.428;13.302;2023-04-03T04:21:19;0.20;99.90
35796;DHT22;21916;52.428;13.302;2023-04-03T04:23:46;0.10;99.90
35796;DHT22;21916;52.428;13.302;2023-04-03T04:26:13;0.00;99.90
35796;DHT22;21916;52.428;13.302;2023-04-03T04:28:39;0.00;99.90
35796;DHT22;21916;52.428;13.302;2023-04-03T04:31:06;0.00;99.90
35796;DHT22;21916;52.428;13.302;2023-04-03T04:33:32;-0.10;99.90
35796;DHT22;21916;52.428;13.302;2023-04-03T04:36:01;0.00;99.90
35796;DHT22;21916;52.428;13.302;2023-04-03T04:38:27;0.00;99.90
35796;DHT22;21916;52.428;13.302;2023-04-03T04:40:53;0.00;99.90
35796;DHT22;21916;52.428;13.302;2023-04-03T04:43:20;0.00;99.90
35796;DHT22;21916;52.428;13.302;2023-04-03T04:45:57;-0.10;99.90
35796;DHT22;21916;52.428;13.302;2023-04-03T04:48:26;0.00;99.90
35796;DHT22;21916;52.428;13.302;2023-04-03T04:50:52;0.00;99.90
35796;DHT22;21916;52.428;13.302;2023-04-03T04:53:18;0.00;99.90
35796;DHT22;21916;52.428;13.302;2023-04-03T04:55:44;0.00;99.90
35796;DHT22;21916;52.428;13.302;2023-04-03T04:58:10;0.10;99.90
35796;DHT22;21916;52.428;13.302;2023-04-03T05:00:36;0.00;99.90
35796;DHT22;21916;52.428;13.302;2023-04-03T05:03:02;0.10;99.90
35796;DHT22;21916;52.428;13.302;2023-04-03T05:05:28;0.10;99.90
35796;DHT22;21916;52.428;13.302;2023-04-03T05:07:54;0.20;99.90
35796;DHT22;21916;52.428;13.302;2023-04-03T05:10:20;0.20;99.90
35796;DHT22;21916;52.428;13.302;2023-04-03T05:12:46;0.20;99.90
35796;DHT22;21916;52.428;13.302;2023-04-03T05:15:12;0.20;99.90
35796;DHT22;21916;52.428;13.302;2023-04-03T05:17:38;0.30;99.90
35796;DHT22;21916;52.428;13.302;2023-04-03T05:20:06;0.50;99.90
35796;DHT22;21916;52.428;13.302;2023-04-03T05:22:33;0.50;99.90
35796;DHT22;21916;52.428;13.302;2023-04-03T05:25:05;0.60;99.90
35796;DHT22;21916;52.428;13.302;2023-04-03T05:27:32;0.70;99.90
35796;DHT22;21916;52.428;13.302;2023-04-03T05:29:58;0.70;99.90
35796;DHT22;21916;52.428;13.302;2023-04-03T05:32:26;0.80;99.90
35796;DHT22;21916;52.428;13.302;2023-04-03T05:35:03;0.80;99.90
35796;DHT22;21916;52.428;13.302;2023-04-03T05:37:30;1.00;99.90
35796;DHT22;21916;52.428;13.302;2023-04-03T05:39:57;1.00;99.90
35796;DHT22;21916;52.428;13.302;2023-04-03T05:42:23;1.00;99.90
35796;DHT22;21916;52.428;13.302;2023-04-03T05:44:49;1.20;99.90
35796;DHT22;21916;52.428;13.302;2023-04-03T05:47:17;1.40;99.90
35796;DHT22;21916;52.428;13.302;2023-04-03T05:49:43;1.50;99.90
35796;DHT22;21916;52.428;13.302;2023-04-03T05:52:22;1.50;99.90
35796;DHT22;21916;52.428;13.302;2023-04-03T05:54:49;1.50;99.90
35796;DHT22;21916;52.428;13.302;2023-04-03T05:57:21;1.60;99.90
35796;DHT22;21916;52.428;13.302;2023-04-03T05:59:47;1.70;99.90
35796;DHT22;21916;52.428;13.302;2023-04-03T06:02:24;1.80;99.90
35796;DHT22;21916;52.428;13.302;2023-04-03T06:04:50;1.90;99.90
35796;DHT22;21916;52.428;13.302;2023-04-03T06:07:20;1.90;99.90
35796;DHT22;21916;52.428;13.302;2023-04-03T06:09:50;1.80;99.90
35796;DHT22;21916;52.428;13.302;2023-04-03T06:12:17;1.90;99.90
35796;DHT22;21916;52.428;13.302;2023-04-03T06:14:43;2.00;99.90
35796;DHT22;21916;52.428;13.302;2023-04-03T06:17:09;2.10;99.90
35796;DHT22;21916;52.428;13.302;2023-04-03T06:19:36;2.10;99.90
35796;DHT22;21916;52.428;13.302;2023-04-03T06:22:02;2.10;99.90
35796;DHT22;21916;52.428;13.302;2023-04-03T06:24:29;2.10;99.90
35796;DHT22;21916;52.428;13.302;2023-04-03T06:26:56;2.20;99.90
35796;DHT22;21916;52.428;13.302;2023-04-03T06:29:23;2.20;99.90
35796;DHT22;21916;52.428;13.302;2023-04-03T06:31:50;2.40;99.90
35796;DHT22;21916;52.428;13.302;2023-04-03T06:34:16;2.50;99.90
35796;DHT22;21916;52.428;13.302;2023-04-03T06:36:42;2.50;99.90
35796;DHT22;21916;52.428;13.302;2023-04-03T06:39:16;2.50;99.90
35796;DHT22;21916;52.428;13.302;2023-04-03T06:41:43;2.60;99.90
35796;DHT22;21916;52.428;13.302;2023-04-03T06:44:09;2.70;99.90
35796;DHT22;21916;52.428;13.302;2023-04-03T06:46:37;2.70;99.90
35796;DHT22;21916;52.428;13.302;2023-04-03T06:49:04;2.80;99.90
35796;DHT22;21916;52.428;13.302;2023-04-03T06:51:33;2.80;99.90
35796;DHT22;21916;52.428;13.302;2023-04-03T06:53:59;2.90;99.90
35796;DHT22;21916;52.428;13.302;2023-04-03T06:56:26;3.00;99.90
35796;DHT22;21916;52.428;13.302;2023-04-03T06:58:53;3.10;99.90
35796;DHT22;21916;52.428;13.302;2023-04-03T07:01:20;3.20;99.90
35796;DHT22;21916;52.428;13.302;2023-04-03T07:03:47;3.30;99.90
35796;DHT22;21916;52.428;13.302;2023-04-03T07:06:15;3.30;99.90
35796;DHT22;21916;52.428;13.302;2023-04-03T07:08:42;3.40;99.90
35796;DHT22;21916;52.428;13.302;2023-04-03T07:11:09;3.60;99.90
35796;DHT22;21916;52.428;13.302;2023-04-03T07:13:36;3.70;99.90
35796;DHT22;21916;52.428;13.302;2023-04-03T07:16:03;3.70;99.90
35796;DHT22;21916;52.428;13.302;2023-04-03T07:18:31;3.90;99.90
35796;DHT22;21916;52.428;13.302;2023-04-03T07:20:57;3.80;99.90
35796;DHT22;21916;52.428;13.302;2023-04-03T07:23:24;3.90;99.90
35796;DHT22;21916;52.428;13.302;2023-04-03T07:25:51;4.00;99.90
35796;DHT22;21916;52.428;13.302;2023-04-03T07:28:18;4.10;99.90
35796;DHT22;21916;52.428;13.302;2023-04-03T07:30:49;4.40;99.90
35796;DHT22;21916;52.428;13.302;2023-04-03T07:33:20;4.50;99.90
35796;DHT22;21916;52.428;13.302;2023-04-03T07:35:46;4.70;99.90
35796;DHT22;21916;52.428;13.302;2023-04-03T07:38:12;4.70;99.90
35796;DHT22;21916;52.428;13.302;2023-04-03T07:40:38;4.80;99.90
35796;DHT22;21916;52.428;13.302;2023-04-03T07:43:05;4.90;99.90
35796;DHT22;21916;52.428;13.302;2023-04-03T07:45:31;5.10;99.90
35796;DHT22;21916;52.428;13.302;2023-04-03T07:47:57;5.10;99.90
35796;DHT22;21916;52.428;13.302;2023-04-03T07:50:23;5.30;99.90
35796;DHT22;21916;52.428;13.302;2023-04-03T07:52:49;5.20;98.50
35796;DHT22;21916;52.428;13.302;2023-04-03T07:55:20;5.20;98.60
35796;DHT22;21916;52.428;13.302;2023-04-03T07:57:46;5.30;99.10
35796;DHT22;21916;52.428;13.302;2023-04-03T08:00:12;5.20;98.50
35796;DHT22;21916;52.428;13.302;2023-04-03T08:02:40;5.10;98.90
35796;DHT22;21916;52.428;13.302;2023-04-03T08:05:06;5.10;98.80
35796;DHT22;21916;52.428;13.302;2023-04-03T08:07:32;5.10;99.10
35796;DHT22;21916;52.428;13.302;2023-04-03T08:09:58;5.10;98.80
35796;DHT22;21916;52.428;13.302;2023-04-03T08:12:24;5.20;99.10
35796;DHT22;21916;52.428;13.302;2023-04-03T08:14:50;5.20;98.80
35796;DHT22;21916;52.428;13.302;2023-04-03T08:17:16;5.10;99.00
35796;DHT22;21916;52.428;13.302;2023-04-03T08:19:42;5.40;99.00
35796;DHT22;21916;52.428;13.302;2023-04-03T08:22:08;5.50;98.60
35796;DHT22;21916;52.428;13.302;2023-04-03T08:24:34;5.40;97.80
35796;DHT22;21916;52.428;13.302;2023-04-03T08:27:05;5.40;97.40
35796;DHT22;21916;52.428;13.302;2023-04-03T08:29:35;5.50;97.80
35796;DHT22;21916;52.428;13.302;2023-04-03T08:32:04;5.70;97.70
35796;DHT22;21916;52.428;13.302;2023-04-03T08:34:31;5.70;97.90
35796;DHT22;21916;52.428;13.302;2023-04-03T08:37:01;5.70;97.70
35796;DHT22;21916;52.428;13.302;2023-04-03T08:39:27;5.80;97.60
35796;DHT22;21916;52.428;13.302;2023-04-03T08:41:55;5.80;97.80
35796;DHT22;21916;52.428;13.302;2023-04-03T08:44:39;5.90;98.10
35796;DHT22;21916;52.428;13.302;2023-04-03T08:49:47;5.70;98.60
35796;DHT22;21916;52.428;13.302;2023-04-03T08:52:19;5.70;98.40
35796;DHT22;21916;52.428;13.302;2023-04-03T08:54:51;5.60;98.20
35796;DHT22;21916;52.428;13.302;2023-04-03T08:57:30;5.60;97.60
35796;DHT22;21916;52.428;13.302;2023-04-03T09:00:00;5.60;97.60
35796;DHT22;21916;52.428;13.302;2023-04-03T09:02:35;5.60;97.70
35796;DHT22;21916;52.428;13.302;2023-04-03T09:05:19;5.30;97.50
35796;DHT22;21916;52.428;13.302;2023-04-03T09:07:56;5.50;98.40
35796;DHT22;21916;52.428;13.302;2023-04-03T09:10:28;5.50;97.90
35796;DHT22;21916;52.428;13.302;2023-04-03T09:13:04;5.60;97.90
35796;DHT22;21916;52.428;13.302;2023-04-03T09:15:32;5.50;98.00
35796;DHT22;21916;52.428;13.302;2023-04-03T09:18:16;5.70;98.10
35796;DHT22;21916;52.428;13.302;2023-04-03T09:23:28;5.70;97.30
35796;DHT22;21916;52.428;13.302;2023-04-03T09:26:05;5.60;97.40
35796;DHT22;21916;52.428;13.302;2023-04-03T09:28:38;5.60;97.40
35796;DHT22;21916;52.428;13.302;2023-04-03T09:33:50;5.60;96.70
35796;DHT22;21916;52.428;13.302;2023-04-03T09:39:15;6.40;95.70
35796;DHT22;21916;52.428;13.302;2023-04-03T09:41:43;7.00;95.20
35796;DHT22;21916;52.428;13.302;2023-04-03T09:44:23;7.60;93.70
35796;DHT22;21916;52.428;13.302;2023-04-03T09:46:50;7.60;92.10
35796;DHT22;21916;52.428;13.302;2023-04-03T09:49:17;7.60;92.00
35796;DHT22;21916;52.428;13.302;2023-04-03T09:51:44;7.60;91.60
35796;DHT22;21916;52.428;13.302;2023-04-03T09:54:31;7.40;91.70
35796;DHT22;21916;52.428;13.302;2023-04-03T09:57:04;7.30;92.10
35796;DHT22;21916;52.428;13.302;2023-04-03T09:59:32;7.30;94.20
35796;DHT22;21916;52.428;13.302;2023-04-03T10:05:26;8.00;92.70
35796;DHT22;21916;52.428;13.302;2023-04-03T10:07:51;8.40;91.10
35796;DHT22;21916;52.428;13.302;2023-04-03T10:10:22;8.50;90.50
35796;DHT22;21916;52.428;13.302;2023-04-03T10:16:00;8.20;90.00
35796;DHT22;21916;52.428;13.302;2023-04-03T10:21:29;8.40;90.40
35796;DHT22;21916;52.428;13.302;2023-04-03T10:27:10;8.80;91.00
35796;DHT22;21916;52.428;13.302;2023-04-03T10:43:50;9.20;88.70
35796;DHT22;21916;52.428;13.302;2023-04-03T10:54:11;9.20;85.70
35796;DHT22;21916;52.428;13.302;2023-04-03T10:56:42;8.90;84.80
35796;DHT22;21916;52.428;13.302;2023-04-03T11:01:51;8.90;86.40
35796;DHT22;21916;52.428;13.302;2023-04-03T11:04:19;9.10;86.00
35796;DHT22;21916;52.428;13.302;2023-04-03T11:06:56;9.10;84.90
35796;DHT22;21916;52.428;13.302;2023-04-03T11:09:30;10.00;84.90
35796;DHT22;21916;52.428;13.302;2023-04-03T11:12:51;11.20;81.40
35796;DHT22;21916;52.428;13.302;2023-04-03T11:14:52;10.80;78.30
35796;DHT22;21916;52.428;13.302;2023-04-03T11:25:23;10.20;81.60
35796;DHT22;21916;52.428;13.302;2023-04-03T11:33:15;10.30;81.10
35796;DHT22;21916;52.428;13.302;2023-04-03T11:35:43;10.70;80.90
35796;DHT22;21916;52.428;13.302;2023-04-03T11:38:17;10.80;80.80
35796;DHT22;21916;52.428;13.302;2023-04-03T11:40:46;10.50;80.40
35796;DHT22;21916;52.428;13.302;2023-04-03T11:46:04;9.80;82.40
35796;DHT22;21916;52.428;13.302;2023-04-03T11:53:54;10.50;80.20
35796;DHT22;21916;52.428;13.302;2023-04-03T12:01:47;10.00;81.90
35796;DHT22;21916;52.428;13.302;2023-04-03T12:04:15;9.70;82.70
35796;DHT22;21916;52.428;13.302;2023-04-03T12:09:34;9.20;83.80
35796;DHT22;21916;52.428;13.302;2023-04-03T12:12:26;9.20;83.10
35796;DHT22;21916;52.428;13.302;2023-04-03T12:14:53;9.20;83.20
35796;DHT22;21916;52.428;13.302;2023-04-03T12:17:26;9.30;84.60
35796;DHT22;21916;52.428;13.302;2023-04-03T12:19:52;9.40;84.70
35796;DHT22;21916;52.428;13.302;2023-04-03T12:22:20;9.30;84.80
35796;DHT22;21916;52.428;13.302;2023-04-03T12:24:52;9.10;84.30
35796;DHT22;21916;52.428;13.302;2023-04-03T12:27:25;8.90;83.90
35796;DHT22;21916;52.428;13.302;2023-04-03T12:30:19;8.70;85.10
35796;DHT22;21916;52.428;13.302;2023-04-03T12:33:12;8.60;86.00
35796;DHT22;21916;52.428;13.302;2023-04-03T12:36:13;8.60;86.10
35796;DHT22;21916;52.428;13.302;2023-04-03T12:38:44;8.40;85.60
35796;DHT22;21916;52.428;13.302;2023-04-03T12:41:27;8.20;86.20
35796;DHT22;21916;52.428;13.302;2023-04-03T12:44:09;8.20;86.00
35796;DHT22;21916;52.428;13.302;2023-04-03T12:46:43;8.20;87.40
35796;DHT22;21916;52.428;13.302;2023-04-03T12:51:55;7.80;87.80
35796;DHT22;21916;52.428;13.302;2023-04-03T12:54:22;7.60;88.20
35796;DHT22;21916;52.428;13.302;2023-04-03T12:56:49;7.50;88.90
35796;DHT22;21916;52.428;13.302;2023-04-03T12:59:25;7.30;88.80
35796;DHT22;21916;52.428;13.302;2023-04-03T13:01:55;6.80;89.40
35796;DHT22;21916;52.428;13.302;2023-04-03T13:04:22;6.60;90.20
35796;DHT22;21916;52.428;13.302;2023-04-03T13:06:48;6.70;89.60
35796;DHT22;21916;52.428;13.302;2023-04-03T13:09:29;6.90;90.20
35796;DHT22;21916;52.428;13.302;2023-04-03T13:12:02;7.20;89.40
35796;DHT22;21916;52.428;13.302;2023-04-03T13:14:30;7.40;86.20
35796;DHT22;21916;52.428;13.302;2023-04-03T13:17:11;7.70;88.00
35796;DHT22;21916;52.428;13.302;2023-04-03T13:19:39;7.90;87.00
35796;DHT22;21916;52.428;13.302;2023-04-03T13:24:52;7.90;86.90
35796;DHT22;21916;52.428;13.302;2023-04-03T13:27:18;8.20;86.60
35796;DHT22;21916;52.428;13.302;2023-04-03T13:29:50;8.40;87.00
35796;DHT22;21916;52.428;13.302;2023-04-03T13:32:20;8.40;86.70
35796;DHT22;21916;52.428;13.302;2023-04-03T13:34:48;8.20;86.70
35796;DHT22;21916;52.428;13.302;2023-04-03T13:42:31;7.90;87.50
35796;DHT22;21916;52.428;13.302;2023-04-03T13:47:47;7.70;87.30
35796;DHT22;21916;52.428;13.302;2023-04-03T13:50:19;7.60;88.60
35796;DHT22;21916;52.428;13.302;2023-04-03T13:52:59;7.40;89.50
35796;DHT22;21916;52.428;13.302;2023-04-03T13:55:30;7.30;89.50
35796;DHT22;21916;52.428;13.302;2023-04-03T13:58:21;7.40;89.50
35796;DHT22;21916;52.428;13.302;2023-04-03T14:00:59;7.40;90.20
35796;DHT22;21916;52.428;13.302;2023-04-03T14:03:27;7.20;90.20
35796;DHT22;21916;52.428;13.302;2023-04-03T14:05:54;7.30;90.70
35796;DHT22;21916;52.428;13.302;2023-04-03T14:08:20;7.20;89.50
35796;DHT22;21916;52.428;13.302;2023-04-03T14:10:47;7.40;90.20
35796;DHT22;21916;52.428;13.302;2023-04-03T14:13:17;7.40;89.60
35796;DHT22;21916;52.428;13.302;2023-04-03T14:15:46;7.40;90.10
35796;DHT22;21916;52.428;13.302;2023-04-03T14:18:18;7.20;90.20
35796;DHT22;21916;52.428;13.302;2023-04-03T14:20:44;7.10;90.70
35796;DHT22;21916;52.428;13.302;2023-04-03T14:23:10;7.10;90.40
35796;DHT22;21916;52.428;13.302;2023-04-03T14:25:37;7.00;90.80
35796;DHT22;21916;52.428;13.302;2023-04-03T14:28:18;6.90;90.30
35796;DHT22;21916;52.428;13.302;2023-04-03T14:30:47;6.90;90.40
35796;DHT22;21916;52.428;13.302;2023-04-03T14:33:15;6.80;90.60
35796;DHT22;21916;52.428;13.302;2023-04-03T14:35:41;6.70;91.00
35796;DHT22;21916;52.428;13.302;2023-04-03T14:38:27;6.80;91.20
35796;DHT22;21916;52.428;13.302;2023-04-03T14:40:54;7.10;90.60
35796;DHT22;21916;52.428;13.302;2023-04-03T14:43:21;7.30;90.50
35796;DHT22;21916;52.428;13.302;2023-04-03T14:45:48;7.40;90.30
35796;DHT22;21916;52.428;13.302;2023-04-03T14:48:24;7.40;89.70
35796;DHT22;21916;52.428;13.302;2023-04-03T14:50:51;7.30;88.20
35796;DHT22;21916;52.428;13.302;2023-04-03T14:53:18;7.20;88.00
35796;DHT22;21916;52.428;13.302;2023-04-03T14:55:49;7.00;88.20
35796;DHT22;21916;52.428;13.302;2023-04-03T14:58:17;7.10;88.30
35796;DHT22;21916;52.428;13.302;2023-04-03T15:00:44;9.50;84.50
35796;DHT22;21916;52.428;13.302;2023-04-03T15:03:14;10.60;82.10
35796;DHT22;21916;52.428;13.302;2023-04-03T15:05:41;10.50;82.10
35796;DHT22;21916;52.428;13.302;2023-04-03T15:08:34;10.20;82.20
35796;DHT22;21916;52.428;13.302;2023-04-03T15:10:59;9.70;83.00
35796;DHT22;21916;52.428;13.302;2023-04-03T15:13:26;9.10;84.10
35796;DHT22;21916;52.428;13.302;2023-04-03T15:15:52;8.90;85.00
35796;DHT22;21916;52.428;13.302;2023-04-03T15:18:22;8.70;85.70
35796;DHT22;21916;52.428;13.302;2023-04-03T15:20:48;8.20;86.90
35796;DHT22;21916;52.428;13.302;2023-04-03T15:23:15;7.90;88.40
35796;DHT22;21916;52.428;13.302;2023-04-03T15:25:47;7.60;90.00
35796;DHT22;21916;52.428;13.302;2023-04-03T15:28:38;7.40;90.90
35796;DHT22;21916;52.428;13.302;2023-04-03T15:31:05;7.30;91.70
35796;DHT22;21916;52.428;13.302;2023-04-03T15:33:32;7.10;91.50
35796;DHT22;21916;52.428;13.302;2023-04-03T15:35:59;6.90;92.20
35796;DHT22;21916;52.428;13.302;2023-04-03T15:38:25;6.60;92.70
35796;DHT22;21916;52.428;13.302;2023-04-03T15:40:51;6.50;93.10
35796;DHT22;21916;52.428;13.302;2023-04-03T15:43:17;6.30;93.50
35796;DHT22;21916;52.428;13.302;2023-04-03T15:45:43;6.20;93.90
35796;DHT22;21916;52.428;13.302;2023-04-03T15:48:10;6.20;94.00
35796;DHT22;21916;52.428;13.302;2023-04-03T15:50:36;6.10;94.20
35796;DHT22;21916;52.428;13.302;2023-04-03T15:53:02;5.90;94.60
35796;DHT22;21916;52.428;13.302;2023-04-03T15:55:30;5.90;94.80
35796;DHT22;21916;52.428;13.302;2023-04-03T15:57:56;5.80;95.20
35796;DHT22;21916;52.428;13.302;2023-04-03T16:00:23;5.80;95.60
35796;DHT22;21916;52.428;13.302;2023-04-03T16:03:04;5.80;95.60
35796;DHT22;21916;52.428;13.302;2023-04-03T16:05:31;5.80;95.70
35796;DHT22;21916;52.428;13.302;2023-04-03T16:07:59;5.90;95.70
35796;DHT22;21916;52.428;13.302;2023-04-03T16:10:26;5.70;96.10
35796;DHT22;21916;52.428;13.302;2023-04-03T16:12:52;5.70;94.90
35796;DHT22;21916;52.428;13.302;2023-04-03T16:15:18;5.70;94.90
35796;DHT22;21916;52.428;13.302;2023-04-03T16:17:44;5.60;94.80
35796;DHT22;21916;52.428;13.302;2023-04-03T16:20:11;5.60;95.10
35796;DHT22;21916;52.428;13.302;2023-04-03T16:22:38;5.60;95.00
35796;DHT22;21916;52.428;13.302;2023-04-03T16:25:06;5.70;95.20
35796;DHT22;21916;52.428;13.302;2023-04-03T16:27:33;5.80;95.60
35796;DHT22;21916;52.428;13.302;2023-04-03T16:29:59;5.70;95.30
35796;DHT22;21916;52.428;13.302;2023-04-03T16:32:28;5.70;95.20
35796;DHT22;21916;52.428;13.302;2023-04-03T16:34:56;5.60;95.50
35796;DHT22;21916;52.428;13.302;2023-04-03T16:37:22;5.50;95.60
35796;DHT22;21916;52.428;13.302;2023-04-03T16:39:48;5.40;95.60
35796;DHT22;21916;52.428;13.302;2023-04-03T16:42:14;5.40;96.30
35796;DHT22;21916;52.428;13.302;2023-04-03T16:44:40;5.60;96.30
35796;DHT22;21916;52.428;13.302;2023-04-03T16:47:06;6.30;95.40
35796;DHT22;21916;52.428;13.302;2023-04-03T16:49:33;7.60;93.90
35796;DHT22;21916;52.428;13.302;2023-04-03T16:52:03;8.80;92.40
35796;DHT22;21916;52.428;13.302;2023-04-03T16:54:30;9.30;91.40
35796;DHT22;21916;52.428;13.302;2023-04-03T16:56:57;9.80;90.50
35796;DHT22;21916;52.428;13.302;2023-04-03T16:59:23;9.30;89.10
35796;DHT22;21916;52.428;13.302;2023-04-03T17:01:49;8.90;90.70
35796;DHT22;21916;52.428;13.302;2023-04-03T17:04:15;8.60;90.70
35796;DHT22;21916;52.428;13.302;2023-04-03T17:06:42;8.10;91.00
35796;DHT22;21916;52.428;13.302;2023-04-03T17:09:08;7.90;91.90
35796;DHT22;21916;52.428;13.302;2023-04-03T17:11:35;7.90;92.10
35796;DHT22;21916;52.428;13.302;2023-04-03T17:14:01;7.70;92.50
35796;DHT22;21916;52.428;13.302;2023-04-03T17:16:31;7.90;92.60
35796;DHT22;21916;52.428;13.302;2023-04-03T17:18:58;7.80;92.90